Time;durP1;ratioP1;P1;durP2;ratioP2;P2;SDS_P1;SDS_P2;PMS_P1;PMS_P2;Temp;Humidity;BMP_temperature;BMP_pressure;BME280_temperature;BME280_humidity;BME280_pressure;Samples;Min_cycle;Max_cycle;Signal;HPM_P1;HPM_P2
2022/10/02 04:02:40;;;;;;;5.63;1.57;;;9.00;96.30;;;;;;5041188;23;20528;-79
2022/10/02 04:05:12;;;;;;;5.90;1.50;;;9.00;96.30;;;;;;4977018;28;20482;-80
2022/10/02 04:07:40;;;;;;;7.70;1.33;;;8.90;96.30;;;;;;4993498;28;20424;-79
2022/10/02 04:10:16;;;;;;;7.13;1.67;;;8.80;96.30;;;;;;4994149;28;20786;-79
2022/10/02 04:12:47;;;;;;;7.90;2.13;;;8.70;96.30;;;;;;4975149;28;20904;-80
2022/10/02 04:15:42;;;;;;;22.13;2.00;;;8.60;96.30;;;;;;4974591;28;20410;-80
2022/10/02 04:18:18;;;;;;;6.33;1.33;;;8.70;96.30;;;;;;4944097;28;20432;-80
2022/10/02 05:00:35;;;;;;;8.80;1.80;;;8.60;96.30;;;;;;4915716;29;20491;-80
2022/10/02 05:03:03;;;;;;;3.67;1.30;;;8.60;96.30;;;;;;4907099;28;20823;-79
2022/10/02 05:05:58;;;;;;;5.10;1.43;;;8.50;96.30;;;;;;4971072;28;20567;-76
2022/10/02 05:08:58;;;;;;;4.03;1.77;;;8.50;96.30;;;;;;4985292;28;20475;-80
2022/10/02 05:11:38;;;;;;;5.00;1.40;;;8.40;96.30;;;;;;4987989;28;20426;-76
2022/10/02 05:14:24;;;;;;;6.03;1.53;;;8.40;96.30;;;;;;4990934;28;20405;-76
2022/10/02 05:17:03;;;;;;;11.83;1.87;;;8.40;96.30;;;;;;4975858;28;20413;-76
2022/10/02 05:20:20;;;;;;;11.17;1.97;;;8.40;96.30;;;;;;4989162;28;20414;-80
2022/10/02 05:23:11;;;;;;;5.77;1.50;;;8.50;96.30;;;;;;4933063;28;20533;-80
2022/10/02 05:26:12;;;;;;;6.73;1.83;;;8.60;96.30;;;;;;4963787;28;20467;-80
2022/10/02 05:28:56;;;;;;;3.70;1.00;;;8.90;96.30;;;;;;4975673;28;20411;-80
2022/10/02 05:31:44;;;;;;;3.90;1.70;;;9.00;96.30;;;;;;4978345;28;20975;-80
2022/10/02 05:34:45;;;;;;;3.17;1.27;;;9.10;96.30;;;;;;4993980;28;20413;-80
2022/10/02 05:37:27;;;;;;;10.80;2.33;;;9.40;96.30;;;;;;4960281;28;20420;-80
2022/10/02 05:40:19;;;;;;;5.87;1.70;;;9.90;96.30;;;;;;4983748;28;20440;-80
2022/10/02 05:43:10;;;;;;;4.83;1.47;;;10.60;96.30;;;;;;4990225;28;20503;-80
2022/10/02 05:45:54;;;;;;;5.33;1.67;;;11.20;96.30;;;;;;4981471;28;20456;-80
2022/10/02 05:48:26;;;;;;;8.20;2.03;;;11.70;96.30;;;;;;4993431;28;20504;-80
2022/10/02 05:50:58;;;;;;;6.00;1.20;;;12.50;96.30;;;;;;4977968;28;20430;-80
2022/10/02 05:53:39;;;;;;;3.43;1.30;;;12.80;96.30;;;;;;4971966;28;20909;-80
2022/10/02 05:56:21;;;;;;;6.57;1.37;;;13.30;96.30;;;;;;4986267;28;20435;-80
2022/10/02 05:58:58;;;;;;;7.37;1.70;;;13.70;96.30;;;;;;4977791;28;20413;-80
2022/10/02 06:01:34;;;;;;;3.70;1.60;;;13.60;96.30;;;;;;4989876;28;20995;-80
2022/10/02 06:04:04;;;;;;;9.17;1.80;;;13.90;96.30;;;;;;4985259;28;20436;-80
2022/10/02 06:06:44;;;;;;;9.20;1.60;;;14.40;96.30;;;;;;4980547;28;20417;-80
2022/10/02 06:09:18;;;;;;;5.47;1.60;;;15.00;96.30;;;;;;4988998;28;20777;-78
2022/10/02 06:12:03;;;;;;;8.30;1.63;;;15.70;96.30;;;;;;4980951;28;20424;-78
2022/10/02 06:14:38;;;;;;;5.03;1.50;;;16.30;96.30;;;;;;4979426;28;20413;-78
2022/10/02 06:17:16;;;;;;;4.50;1.43;;;17.00;96.30;;;;;;4989040;28;20761;-78
2022/10/02 06:20:00;;;;;;;4.20;1.40;;;16.80;96.30;;;;;;4979410;28;20416;-78
2022/10/02 06:22:33;;;;;;;11.63;1.77;;;16.80;96.30;;;;;;4978942;28;20845;-78
2022/10/02 06:25:13;;;;;;;6.60;1.80;;;16.80;96.30;;;;;;4989463;28;20448;-78
2022/10/02 06:28:14;;;;;;;8.30;2.27;;;15.90;96.30;;;;;;4979468;28;20412;-78
2022/10/02 06:30:45;;;;;;;6.60;1.70;;;15.80;96.30;;;;;;4961424;28;20860;-76
2022/10/02 06:33:14;;;;;;;4.27;1.50;;;16.10;96.30;;;;;;4989136;28;20425;-75
2022/10/02 06:36:21;;;;;;;5.50;1.47;;;16.90;96.30;;;;;;4984684;28;20505;-76
2022/10/02 06:38:52;;;;;;;10.77;2.40;;;17.50;96.30;;;;;;4987621;28;20416;-77
2022/10/02 06:42:05;;;;;;;6.07;1.60;;;18.20;96.30;;;;;;4975756;28;20539;-76
2022/10/02 06:44:37;;;;;;;5.83;1.57;;;17.70;96.30;;;;;;4922059;28;20500;-76
2022/10/02 06:47:16;;;;;;;7.10;2.00;;;18.60;96.30;;;;;;4991557;28;20425;-76
2022/10/02 06:49:57;;;;;;;5.17;1.63;;;19.10;96.30;;;;;;4987264;28;20419;-77
2022/10/02 06:52:55;;;;;;;5.37;1.63;;;19.50;96.30;;;;;;4986481;28;20891;-77
2022/10/02 06:56:02;;;;;;;3.80;1.40;;;20.40;96.30;;;;;;4976938;28;20820;-76
2022/10/02 06:58:48;;;;;;;6.90;1.53;;;20.90;96.30;;;;;;4925116;29;20945;-76
2022/10/02 07:01:58;;;;;;;4.20;1.50;;;21.50;94.70;;;;;;4981578;28;20471;-77
2022/10/02 07:04:40;;;;;;;7.60;1.60;;;21.20;94.40;;;;;;4985463;28;20412;-75
2022/10/02 07:07:43;;;;;;;7.20;1.70;;;21.20;94.30;;;;;;4975892;28;20413;-76
2022/10/02 07:10:27;;;;;;;7.27;1.97;;;21.20;93.70;;;;;;4986849;28;20436;-76
2022/10/02 07:13:03;;;;;;;3.50;1.50;;;20.60;95.80;;;;;;4976035;28;20404;-77
2022/10/02 07:15:44;;;;;;;9.43;2.10;;;20.80;95.50;;;;;;4975879;28;20401;-76
2022/10/02 07:18:36;;;;;;;5.23;1.77;;;20.30;96.30;;;;;;4975360;28;20421;-75
2022/10/02 07:21:33;;;;;;;4.63;1.90;;;20.20;96.30;;;;;;4971842;28;20979;-76
2022/10/02 07:24:43;;;;;;;4.70;2.20;;;19.90;96.30;;;;;;4975815;28;20415;-75
2022/10/02 07:27:19;;;;;;;7.30;1.90;;;18.20;96.30;;;;;;4975400;28;20546;-76
2022/10/02 07:29:59;;;;;;;8.37;2.80;;;17.80;96.30;;;;;;4975943;28;20463;-75
2022/10/02 07:32:47;;;;;;;6.50;1.87;;;16.70;96.30;;;;;;4975694;28;20936;-75
2022/10/02 07:35:31;;;;;;;8.70;2.20;;;16.20;96.30;;;;;;4975625;28;20405;-75
2022/10/02 07:37:57;;;;;;;8.60;1.67;;;16.10;96.30;;;;;;4990849;28;20920;-74
2022/10/02 07:40:22;;;;;;;3.70;1.60;;;15.80;96.30;;;;;;4995091;28;20412;-75
2022/10/02 07:42:57;;;;;;;6.00;1.27;;;15.00;96.30;;;;;;4994378;28;20173;-76
2022/10/02 07:45:53;;;;;;;4.40;1.40;;;15.00;96.30;;;;;;4995005;28;20648;-75
2022/10/02 07:48:27;;;;;;;3.90;1.40;;;15.00;96.30;;;;;;4945445;28;20487;-76
2022/10/02 07:51:45;;;;;;;6.50;1.90;;;14.80;96.30;;;;;;4988667;28;20490;-76
2022/10/02 07:54:15;;;;;;;5.27;1.67;;;14.60;96.30;;;;;;4980423;28;20409;-76
2022/10/02 07:56:44;;;;;;;5.13;1.77;;;14.40;96.30;;;;;;4982984;28;20418;-76
2022/10/02 07:59:14;;;;;;;7.70;1.63;;;14.30;96.30;;;;;;4977416;28;20521;-76
2022/10/02 08:01:42;;;;;;;7.17;1.70;;;14.30;96.30;;;;;;4980856;28;20503;-76
2022/10/02 08:04:17;;;;;;;5.37;1.60;;;14.20;96.30;;;;;;4993635;28;20420;-76
2022/10/02 08:06:45;;;;;;;7.97;1.77;;;14.40;96.30;;;;;;4991601;28;20412;-78
2022/10/02 08:09:17;;;;;;;4.90;1.40;;;14.40;96.30;;;;;;4992977;28;20401;-77
2022/10/02 08:11:57;;;;;;;9.60;1.77;;;14.40;96.30;;;;;;4975531;28;20468;-76
2022/10/02 08:14:37;;;;;;;8.87;2.30;;;14.20;96.30;;;;;;4993036;28;20411;-77
2022/10/02 08:17:26;;;;;;;7.57;1.93;;;14.10;96.30;;;;;;4992662;28;20403;-76
2022/10/02 08:19:57;;;;;;;4.07;1.70;;;14.20;96.30;;;;;;4994235;28;20409;-75
2022/10/02 08:22:30;;;;;;;7.50;2.00;;;14.30;96.30;;;;;;4994563;28;20814;-77
2022/10/02 08:25:04;;;;;;;6.83;1.80;;;14.40;96.30;;;;;;4994481;28;21022;-76
2022/10/02 08:28:10;;;;;;;7.83;2.00;;;14.40;96.30;;;;;;4976617;28;20500;-77
2022/10/02 08:30:37;;;;;;;7.30;1.93;;;14.10;96.30;;;;;;4994511;28;20432;-75
2022/10/02 08:33:12;;;;;;;3.87;1.43;;;14.00;96.30;;;;;;4994454;28;20810;-75
2022/10/02 08:35:58;;;;;;;5.53;1.50;;;14.40;96.30;;;;;;4994510;28;20409;-76
2022/10/02 08:38:50;;;;;;;9.10;2.10;;;14.60;96.30;;;;;;4994480;28;20424;-76
2022/10/02 08:41:52;;;;;;;3.33;1.30;;;15.30;96.30;;;;;;4994183;28;20455;-77
2022/10/02 08:44:52;;;;;;;5.23;1.40;;;15.40;96.30;;;;;;4976849;28;20790;-77
2022/10/02 08:47:55;;;;;;;6.17;1.60;;;15.30;96.30;;;;;;4994151;28;20471;-76
2022/10/02 08:50:32;;;;;;;3.00;1.33;;;15.20;96.30;;;;;;4994506;28;20841;-75
2022/10/02 08:53:20;;;;;;;6.73;1.37;;;15.30;96.30;;;;;;4994151;28;20779;-76
2022/10/02 08:56:04;;;;;;;7.73;2.00;;;14.90;96.30;;;;;;4994263;28;20423;-76
2022/10/02 08:58:42;;;;;;;4.10;1.63;;;14.80;96.30;;;;;;4994525;28;20483;-76
2022/10/02 09:01:45;;;;;;;6.40;1.83;;;14.80;96.30;;;;;;4993979;28;20433;-75
2022/10/02 09:04:30;;;;;;;4.67;1.63;;;14.60;96.30;;;;;;4994104;28;20408;-75
2022/10/02 09:07:34;;;;;;;5.87;1.30;;;14.70;96.30;;;;;;4976627;28;20429;-75
2022/10/02 09:10:33;;;;;;;11.50;2.17;;;15.00;96.30;;;;;;4994389;28;20388;-75
2022/10/02 09:13:11;;;;;;;3.23;1.10;;;16.00;96.30;;;;;;4994101;28;20451;-77
2022/10/02 09:15:45;;;;;;;6.80;1.37;;;17.20;96.30;;;;;;4994173;28;20463;-75
2022/10/02 09:18:58;;;;;;;3.73;1.50;;;17.20;96.30;;;;;;4994098;28;20401;-75
2022/10/02 09:21:32;;;;;;;5.53;1.20;;;16.60;96.30;;;;;;4963972;28;20837;-75
2022/10/02 09:24:01;;;;;;;4.10;1.30;;;15.50;96.30;;;;;;4993942;28;20488;-75
2022/10/02 09:27:10;;;;;;;5.50;1.30;;;15.10;96.30;;;;;;4976611;28;20460;-74
2022/10/02 09:29:41;;;;;;;4.43;1.40;;;15.40;96.30;;;;;;4993584;28;20416;-75
2022/10/02 09:32:42;;;;;;;3.13;1.00;;;16.00;96.30;;;;;;4993432;28;20444;-74
2022/10/02 09:35:31;;;;;;;4.83;1.40;;;16.00;96.30;;;;;;4993507;28;20401;-76
2022/10/02 09:38:31;;;;;;;3.57;1.40;;;16.60;96.30;;;;;;4993160;28;20409;-74
2022/10/02 09:41:40;;;;;;;5.27;1.70;;;16.00;96.30;;;;;;4993103;28;20429;-74
2022/10/02 09:44:28;;;;;;;3.73;1.60;;;15.30;96.30;;;;;;4993218;28;20968;-74
2022/10/02 09:47:05;;;;;;;7.20;1.30;;;15.30;96.30;;;;;;4993048;28;20452;-77
2022/10/02 09:49:56;;;;;;;4.07;1.23;;;15.10;96.30;;;;;;4981612;28;20405;-75
2022/10/02 09:52:40;;;;;;;5.20;1.37;;;14.80;96.30;;;;;;4987703;28;20429;-74
2022/10/02 09:55:28;;;;;;;3.63;1.37;;;14.60;96.30;;;;;;4970792;28;20441;-76
2022/10/02 09:58:31;;;;;;;3.87;1.10;;;14.50;96.30;;;;;;4973020;28;20390;-74
2022/10/02 10:01:26;;;;;;;3.53;1.27;;;14.40;96.30;;;;;;4973601;28;20484;-74
2022/10/02 10:04:29;;;;;;;6.23;1.70;;;14.30;96.30;;;;;;4973667;28;20549;-73
2022/10/02 10:07:11;;;;;;;3.07;1.80;;;14.60;96.30;;;;;;4973316;28;21245;-73
2022/10/02 10:09:59;;;;;;;3.87;1.40;;;14.80;96.30;;;;;;4986051;28;20539;-74
2022/10/02 10:12:51;;;;;;;9.70;1.60;;;14.90;96.30;;;;;;4973891;28;20433;-74
2022/10/02 10:15:32;;;;;;;3.10;1.40;;;14.80;96.30;;;;;;4988643;28;20420;-74
2022/10/02 10:18:18;;;;;;;5.17;1.30;;;14.50;96.30;;;;;;4975974;28;20962;-73
2022/10/02 10:21:12;;;;;;;4.80;1.10;;;14.10;96.30;;;;;;4979038;28;20464;-73
2022/10/02 10:24:02;;;;;;;3.97;1.20;;;13.80;96.30;;;;;;4957076;28;20468;-76
2022/10/02 10:26:55;;;;;;;3.47;1.30;;;13.40;96.30;;;;;;4974377;28;20449;-77
2022/10/02 10:29:56;;;;;;;4.90;1.43;;;13.20;96.30;;;;;;4974369;28;20406;-78
2022/10/02 10:33:00;;;;;;;12.63;3.03;;;13.10;96.30;;;;;;4968377;28;20439;-76
2022/10/02 10:35:31;;;;;;;5.27;1.40;;;13.10;96.30;;;;;;4973359;28;20424;-77
2022/10/02 10:38:33;;;;;;;6.40;1.37;;;13.40;96.30;;;;;;4979894;28;20416;-77
2022/10/02 10:41:23;;;;;;;4.37;1.30;;;13.60;96.30;;;;;;4984398;28;20440;-76
2022/10/02 10:44:11;;;;;;;6.40;1.77;;;13.50;96.30;;;;;;4978103;28;20457;-76
2022/10/02 10:47:07;;;;;;;7.53;1.47;;;13.30;96.30;;;;;;4978245;28;20445;-76
2022/10/02 10:50:02;;;;;;;6.87;1.53;;;13.20;96.30;;;;;;4979157;28;20405;-77
2022/10/02 10:52:50;;;;;;;3.80;1.20;;;13.10;96.30;;;;;;4978451;28;20429;-76
2022/10/02 10:55:58;;;;;;;8.40;1.70;;;12.90;96.30;;;;;;4979088;28;20405;-76
2022/10/02 10:59:05;;;;;;;6.07;1.60;;;12.90;96.30;;;;;;4961597;28;20461;-77
2022/10/02 11:01:58;;;;;;;7.67;2.13;;;12.80;96.30;;;;;;4965043;28;20461;-78
2022/10/02 11:04:45;;;;;;;9.33;1.67;;;12.80;96.30;;;;;;5003506;28;20416;-76
2022/10/02 11:08:05;;;;;;;6.03;1.77;;;12.70;96.30;;;;;;5020396;28;20405;-75
2022/10/02 11:10:49;;;;;;;3.03;1.03;;;12.50;96.30;;;;;;5001611;28;20432;-73
2022/10/02 11:13:50;;;;;;;8.60;3.37;;;11.50;96.30;;;;;;4997196;28;20420;-71
2022/10/02 11:16:18;;;;;;;3.90;0.90;;;10.90;96.30;;;;;;4996324;28;20471;-72
2022/10/02 11:18:58;;;;;;;1.60;0.80;;;10.60;96.30;;;;;;4995615;28;20909;-73
2022/10/02 11:21:47;;;;;;;4.90;1.00;;;10.50;96.30;;;;;;4996528;28;20430;-73
2022/10/02 11:24:37;;;;;;;6.27;0.93;;;10.50;96.30;;;;;;4978431;28;20464;-73
2022/10/02 11:27:35;;;;;;;5.53;1.10;;;10.40;96.30;;;;;;4959627;28;20984;-73
2022/10/02 11:30:20;;;;;;;2.23;0.80;;;10.30;96.30;;;;;;4960579;28;20520;-73
2022/10/02 11:33:10;;;;;;;3.53;0.83;;;10.30;96.30;;;;;;4987963;28;20413;-74
2022/10/02 11:35:36;;;;;;;2.87;0.83;;;10.40;96.30;;;;;;4995139;28;20416;-74
2022/10/02 11:38:23;;;;;;;3.90;0.67;;;10.50;96.30;;;;;;4983392;28;20504;-75
2022/10/02 11:51:09;;;;;;;1.67;0.80;;;10.40;96.30;;;;;;5021206;28;20471;-77
2022/10/02 11:53:40;;;;;;;2.80;0.93;;;10.50;96.30;;;;;;4985896;28;20433;-78
2022/10/02 11:56:14;;;;;;;2.80;1.00;;;10.60;96.30;;;;;;5016278;28;20420;-78
2022/10/02 11:58:51;;;;;;;3.57;1.07;;;10.60;96.30;;;;;;4992412;28;20428;-78
2022/10/02 12:01:51;;;;;;;8.03;1.10;;;10.60;96.30;;;;;;5016833;28;20440;-78
2022/10/02 12:04:35;;;;;;;1.40;0.80;;;10.70;96.30;;;;;;4999462;28;20427;-77
2022/10/02 12:07:21;;;;;;;2.60;1.00;;;10.80;96.30;;;;;;5016709;28;20945;-78
2022/10/02 12:10:02;;;;;;;2.07;1.00;;;10.90;96.30;;;;;;4999116;28;20510;-78
2022/10/02 12:12:54;;;;;;;2.60;0.90;;;11.00;96.30;;;;;;5017204;28;20466;-77
2022/10/02 12:15:43;;;;;;;1.60;0.80;;;11.00;96.30;;;;;;4999419;28;20423;-78
2022/10/02 12:18:45;;;;;;;3.10;0.90;;;11.00;96.30;;;;;;4997952;28;20411;-76
2022/10/02 12:26:57;;;;;;;8.43;1.13;;;11.40;96.30;;;;;;5013947;28;20418;-78
2022/10/02 12:27:59;;;;;;;1.87;0.90;;;11.80;96.30;;;;;;4994576;28;20424;-78
2022/10/02 12:30:34;;;;;;;2.30;1.13;;;12.30;96.30;;;;;;5009936;28;20415;-78
2022/10/02 12:33:06;;;;;;;5.70;1.50;;;12.60;96.30;;;;;;4996453;28;20847;-78
2022/10/02 12:35:32;;;;;;;6.07;1.83;;;13.00;96.30;;;;;;5014151;28;20919;-78
2022/10/02 12:38:06;;;;;;;4.47;1.67;;;13.40;96.30;;;;;;5014071;28;20435;-77
2022/10/02 12:40:57;;;;;;;3.83;1.27;;;13.60;96.30;;;;;;5014276;28;20201;-78
2022/10/02 12:43:52;;;;;;;3.50;1.07;;;13.60;96.30;;;;;;5014507;28;20411;-78
2022/10/02 12:46:31;;;;;;;5.47;2.00;;;13.50;96.30;;;;;;5013896;28;20455;-78
2022/10/02 12:49:14;;;;;;;3.83;1.90;;;13.60;96.30;;;;;;5013854;28;20749;-78
2022/10/02 12:52:02;;;;;;;3.27;1.30;;;13.80;96.30;;;;;;5013391;28;20455;-78
2022/10/02 12:55:02;;;;;;;5.10;1.30;;;14.10;96.30;;;;;;5013145;28;20442;-78
2022/10/02 12:57:51;;;;;;;1.60;1.10;;;14.10;96.30;;;;;;4996278;28;20428;-77
2022/10/02 13:00:50;;;;;;;2.87;1.10;;;14.20;96.30;;;;;;5013155;28;20412;-78
2022/10/02 13:03:21;;;;;;;3.20;1.50;;;14.40;96.30;;;;;;5012011;28;20415;-78
2022/10/02 13:06:11;;;;;;;6.73;1.97;;;14.50;96.30;;;;;;4995474;28;20871;-78
2022/10/02 13:09:01;;;;;;;3.97;1.57;;;14.40;96.30;;;;;;5012629;28;20427;-77
2022/10/02 13:11:50;;;;;;;9.00;1.60;;;14.60;96.30;;;;;;5012883;28;20428;-78
2022/10/02 13:14:34;;;;;;;5.13;1.60;;;14.60;96.30;;;;;;5012575;28;20427;-77
2022/10/02 13:17:24;;;;;;;4.63;1.77;;;14.70;96.30;;;;;;5012631;28;20502;-78
2022/10/02 13:20:12;;;;;;;2.60;1.63;;;14.50;96.30;;;;;;5014728;28;20435;-77
2022/10/02 13:22:53;;;;;;;3.93;1.30;;;14.40;96.30;;;;;;5012118;28;20408;-77
2022/10/02 13:25:55;;;;;;;3.73;1.80;;;14.60;96.30;;;;;;4994061;28;20450;-78
2022/10/02 13:28:39;;;;;;;9.17;1.90;;;14.70;96.30;;;;;;4992935;28;20413;-77
2022/10/02 13:31:35;;;;;;;3.30;1.70;;;14.60;96.30;;;;;;4992478;28;20527;-78
2022/10/02 13:34:41;;;;;;;4.03;1.50;;;14.90;96.30;;;;;;5011974;28;20492;-78
2022/10/02 13:37:16;;;;;;;7.03;1.83;;;15.10;96.30;;;;;;4993306;28;20424;-77
2022/10/02 13:40:04;;;;;;;4.07;1.70;;;15.40;96.30;;;;;;5008009;28;20430;-77
2022/10/02 13:42:53;;;;;;;8.87;2.10;;;15.30;96.30;;;;;;5009930;28;20439;-77
2022/10/02 13:45:28;;;;;;;6.10;1.40;;;14.60;96.30;;;;;;5011191;28;20455;-78
2022/10/02 13:48:19;;;;;;;6.70;1.40;;;14.20;96.30;;;;;;5010752;28;20420;-77
2022/10/02 13:50:59;;;;;;;8.60;1.90;;;14.00;96.30;;;;;;5009274;28;20450;-78
2022/10/02 13:53:55;;;;;;;4.00;1.37;;;13.80;96.30;;;;;;4994974;28;20777;-78
2022/10/02 13:56:45;;;;;;;7.20;1.80;;;13.90;96.30;;;;;;5011759;28;20494;-78
2022/10/02 13:59:24;;;;;;;5.57;1.23;;;13.80;96.30;;;;;;4994534;28;20422;-77
2022/10/02 14:02:21;;;;;;;4.43;1.57;;;13.80;96.30;;;;;;5012283;28;21193;-78
2022/10/02 14:04:47;;;;;;;5.10;1.40;;;13.70;96.30;;;;;;4972913;28;20568;-78
2022/10/02 14:07:25;;;;;;;8.47;1.80;;;13.60;96.30;;;;;;5011367;28;20555;-78
2022/10/02 14:10:28;;;;;;;8.60;2.10;;;13.60;96.30;;;;;;5006844;28;20185;-78
2022/10/02 14:13:15;;;;;;;4.50;1.63;;;13.50;96.30;;;;;;4996753;28;20411;-78
2022/10/02 14:15:52;;;;;;;8.33;1.53;;;13.70;96.30;;;;;;5009020;28;20423;-78
2022/10/02 14:18:44;;;;;;;4.00;1.30;;;13.90;96.30;;;;;;5009671;28;20451;-77
2022/10/02 14:21:30;;;;;;;4.87;1.43;;;14.20;96.30;;;;;;5011322;28;20961;-78
2022/10/02 14:24:15;;;;;;;4.80;1.73;;;14.20;96.30;;;;;;5009998;28;20494;-77
2022/10/02 14:26:59;;;;;;;4.40;1.37;;;14.20;96.30;;;;;;4996700;28;20673;-76
2022/10/02 14:29:51;;;;;;;8.70;1.70;;;14.00;96.30;;;;;;5011329;28;20411;-77
2022/10/02 14:32:45;;;;;;;6.90;1.43;;;13.60;96.30;;;;;;5009944;28;20435;-78
2022/10/02 14:35:23;;;;;;;4.10;1.70;;;13.40;96.30;;;;;;5006856;28;20408;-78
2022/10/02 14:38:08;;;;;;;8.43;2.10;;;13.30;96.30;;;;;;5011430;28;20487;-78
2022/10/02 14:40:54;;;;;;;8.10;1.60;;;13.10;96.30;;;;;;5011973;28;20443;-77
2022/10/02 14:43:53;;;;;;;4.40;1.47;;;13.00;96.30;;;;;;5011772;28;20408;-75
2022/10/02 14:46:42;;;;;;;2.90;1.40;;;12.90;96.30;;;;;;4992699;28;20463;-77
2022/10/02 14:49:16;;;;;;;5.33;1.50;;;12.90;96.30;;;;;;5009739;28;20521;-77
2022/10/02 14:52:17;;;;;;;6.00;1.60;;;13.00;96.30;;;;;;5011895;28;20455;-76
2022/10/02 14:54:46;;;;;;;4.23;1.73;;;13.10;96.30;;;;;;5006684;28;20462;-75
2022/10/02 14:57:29;;;;;;;2.73;1.13;;;13.20;96.30;;;;;;5011177;28;20427;-77
2022/10/02 15:00:14;;;;;;;4.00;1.20;;;13.20;96.30;;;;;;5011051;28;20768;-76
2022/10/02 15:02:47;;;;;;;6.23;1.33;;;13.20;96.30;;;;;;5008255;28;20814;-77
2022/10/02 15:05:34;;;;;;;3.77;1.30;;;13.10;96.30;;;;;;4975865;28;20464;-77
2022/10/02 15:08:08;;;;;;;3.77;1.20;;;13.00;96.30;;;;;;4988165;28;20432;-76
2022/10/02 15:10:38;;;;;;;2.33;1.30;;;12.90;96.30;;;;;;5012270;28;20928;-77
2022/10/02 15:13:11;;;;;;;2.30;1.20;;;12.80;96.30;;;;;;5012853;28;20785;-77
2022/10/02 15:19:11;;;;;;;3.57;1.53;;;12.50;96.30;;;;;;5015869;28;20415;-78
2022/10/02 15:21:58;;;;;;;3.63;1.67;;;12.40;96.30;;;;;;5016751;28;20962;-78
2022/10/02 15:24:30;;;;;;;3.37;1.70;;;12.30;96.30;;;;;;5017430;28;20764;-79
2022/10/02 15:27:10;;;;;;;2.73;1.50;;;12.20;96.30;;;;;;4998343;28;20420;-77
2022/10/02 15:29:38;;;;;;;2.70;1.30;;;12.10;96.30;;;;;;4998717;28;20407;-78
2022/10/02 15:32:28;;;;;;;4.30;1.70;;;12.00;96.30;;;;;;5016356;28;20532;-78
2022/10/02 15:35:22;;;;;;;3.67;1.20;;;12.00;96.30;;;;;;4997032;28;20397;-77
2022/10/02 15:37:59;;;;;;;4.33;1.73;;;11.90;96.30;;;;;;5016766;28;20413;-77
2022/10/02 15:40:25;;;;;;;6.90;1.70;;;11.90;96.30;;;;;;5036524;28;20408;-77
2022/10/02 15:43:23;;;;;;;4.23;1.50;;;11.90;96.30;;;;;;5019048;28;20540;-77
2022/10/02 15:46:05;;;;;;;5.47;1.63;;;11.90;96.30;;;;;;5028121;28;20204;-77
2022/10/02 15:48:47;;;;;;;3.47;1.30;;;12.00;96.30;;;;;;5017453;28;20471;-77
2022/10/02 15:51:42;;;;;;;3.37;1.50;;;12.00;96.30;;;;;;5013565;28;20459;-77
2022/10/02 15:54:28;;;;;;;5.13;2.10;;;12.00;96.30;;;;;;5015271;28;20499;-78
2022/10/02 15:57:06;;;;;;;4.10;1.90;;;11.90;96.30;;;;;;4995893;28;20423;-79
2022/10/02 15:59:56;;;;;;;8.63;1.73;;;11.80;96.30;;;;;;4989856;28;20419;-78
2022/10/02 16:02:40;;;;;;;6.20;2.03;;;11.70;96.30;;;;;;4997361;28;20455;-78
2022/10/02 16:05:18;;;;;;;5.40;1.90;;;11.50;96.30;;;;;;5012397;28;20548;-78
2022/10/02 16:08:07;;;;;;;4.10;1.63;;;11.40;96.30;;;;;;5013794;28;20424;-78
2022/10/02 16:10:37;;;;;;;7.87;2.40;;;11.40;96.30;;;;;;4981056;28;20968;-79
2022/10/02 16:13:39;;;;;;;5.40;1.77;;;11.30;96.30;;;;;;4997213;28;20473;-78
2022/10/02 16:16:38;;;;;;;5.77;2.57;;;11.10;96.30;;;;;;5015172;28;20495;-79
2022/10/02 16:22:48;;;;;;;2.60;1.30;;;10.80;96.30;;;;;;5015717;28;20419;-78
2022/10/02 16:25:44;;;;;;;2.53;1.20;;;10.80;96.30;;;;;;5014664;28;20443;-79
2022/10/02 16:28:21;;;;;;;10.83;3.10;;;10.70;96.30;;;;;;5013125;28;20931;-79
2022/10/02 16:30:49;;;;;;;2.97;1.23;;;10.60;96.30;;;;;;5014129;28;20789;-78
2022/10/02 16:33:31;;;;;;;11.17;1.87;;;10.50;96.30;;;;;;5014193;28;20510;-78
2022/10/02 16:36:17;;;;;;;4.93;1.60;;;10.50;96.30;;;;;;5013678;28;20414;-79
2022/10/02 16:38:53;;;;;;;4.60;2.30;;;10.30;96.30;;;;;;5014356;28;20436;-78
2022/10/02 16:41:38;;;;;;;4.37;1.93;;;10.20;96.30;;;;;;5013868;28;20449;-79
2022/10/02 16:44:37;;;;;;;3.90;2.30;;;10.20;96.30;;;;;;5014019;28;20447;-78
2022/10/02 16:47:05;;;;;;;4.83;1.83;;;10.10;96.30;;;;;;5013773;28;20409;-79
2022/10/02 16:49:56;;;;;;;7.97;2.60;;;10.00;96.30;;;;;;4992824;28;20492;-76
2022/10/02 16:52:44;;;;;;;7.00;2.47;;;10.00;96.30;;;;;;4997090;28;20472;-78
2022/10/02 16:55:34;;;;;;;7.30;2.37;;;10.00;96.30;;;;;;5010175;28;20423;-78
2022/10/02 16:58:11;;;;;;;9.20;2.40;;;10.00;96.30;;;;;;4995575;28;20424;-79
2022/10/02 17:01:03;;;;;;;2.90;1.70;;;10.00;96.30;;;;;;5012403;28;20439;-78
2022/10/02 17:03:45;;;;;;;5.20;2.00;;;10.00;96.30;;;;;;5012748;28;20908;-77
2022/10/02 17:06:26;;;;;;;12.20;2.57;;;10.20;96.30;;;;;;5012532;28;20471;-77
2022/10/02 17:09:16;;;;;;;5.03;1.83;;;10.20;96.30;;;;;;5010278;28;20465;-77
2022/10/02 17:11:53;;;;;;;5.90;1.93;;;10.20;96.30;;;;;;5011649;28;20703;-76
2022/10/02 17:14:29;;;;;;;3.83;2.63;;;10.40;96.30;;;;;;4991936;28;20513;-78
2022/10/02 17:17:07;;;;;;;6.43;2.30;;;10.40;96.30;;;;;;4993233;28;20430;-78
2022/10/02 17:19:45;;;;;;;5.80;1.90;;;10.50;96.30;;;;;;5012723;28;20403;-78
2022/10/02 17:22:31;;;;;;;6.23;2.07;;;10.60;96.30;;;;;;5011825;28;20427;-78
2022/10/02 17:25:26;;;;;;;5.57;1.93;;;10.60;96.30;;;;;;4994598;28;20984;-78
2022/10/02 17:27:55;;;;;;;4.63;2.03;;;10.70;96.30;;;;;;4994593;28;20459;-78
2022/10/02 17:30:26;;;;;;;6.80;1.80;;;10.70;96.30;;;;;;5012665;28;20419;-79
2022/10/02 17:33:12;;;;;;;2.80;1.60;;;10.70;96.30;;;;;;4995066;28;20946;-76
2022/10/02 17:36:09;;;;;;;5.43;1.97;;;10.80;96.30;;;;;;5012766;28;20487;-76
2022/10/02 17:39:11;;;;;;;2.53;1.30;;;10.80;96.30;;;;;;5011547;28;20433;-76
2022/10/02 17:41:54;;;;;;;7.30;2.60;;;10.70;96.30;;;;;;5012521;28;20481;-76
2022/10/02 17:44:41;;;;;;;5.00;1.80;;;10.70;96.30;;;;;;4992789;28;20766;-76
2022/10/02 17:47:09;;;;;;;2.90;1.30;;;10.70;96.30;;;;;;5005743;28;20423;-79
2022/10/02 17:49:44;;;;;;;4.67;2.13;;;10.60;96.30;;;;;;5012225;28;20455;-79
2022/10/02 17:58:39;;;;;;;4.03;1.80;;;10.50;96.30;;;;;;5011676;28;20407;-78
2022/10/02 18:01:39;;;;;;;3.43;2.00;;;10.50;96.30;;;;;;4994646;28;20431;-78
2022/10/02 18:04:04;;;;;;;7.77;1.93;;;10.30;96.30;;;;;;5012350;28;20385;-78
2022/10/02 18:06:38;;;;;;;5.00;1.90;;;10.20;96.30;;;;;;5012113;28;20474;-79
2022/10/02 18:09:15;;;;;;;8.70;2.27;;;10.10;96.30;;;;;;5011363;28;20161;-79
2022/10/02 18:12:05;;;;;;;5.50;2.37;;;10.00;96.30;;;;;;5010864;28;20518;-77
2022/10/02 18:14:49;;;;;;;9.30;2.80;;;9.90;96.30;;;;;;5011222;28;20519;-77
2022/10/02 18:17:38;;;;;;;3.33;2.00;;;9.90;96.30;;;;;;5010432;28;20427;-79
2022/10/02 18:20:21;;;;;;;5.23;2.33;;;9.90;96.30;;;;;;5011658;28;20508;-78
2022/10/02 18:23:05;;;;;;;13.10;2.43;;;9.90;96.30;;;;;;4994653;28;20451;-77
2022/10/02 18:25:51;;;;;;;3.63;1.80;;;9.90;96.30;;;;;;5012231;28;20439;-77
2022/10/02 18:29:04;;;;;;;6.30;2.00;;;9.80;96.30;;;;;;5011728;28;20392;-77
2022/10/02 18:32:13;;;;;;;6.80;2.30;;;9.90;96.30;;;;;;4951546;29;20445;-78
2022/10/02 18:34:57;;;;;;;4.80;2.00;;;9.80;96.30;;;;;;4935534;29;20926;-78
2022/10/02 18:37:50;;;;;;;8.03;2.23;;;9.70;96.30;;;;;;4998979;28;20428;-78
2022/10/02 18:40:47;;;;;;;4.77;1.93;;;9.70;96.30;;;;;;4992144;28;20424;-80
2022/10/02 18:43:30;;;;;;;2.50;2.03;;;9.60;96.30;;;;;;4991032;28;20750;-78
2022/10/02 18:46:29;;;;;;;5.40;3.10;;;9.60;96.30;;;;;;4992312;28;20444;-78
2022/10/02 18:49:06;;;;;;;5.40;2.20;;;9.60;96.30;;;;;;5006891;28;20470;-79
2022/10/02 18:51:54;;;;;;;9.60;2.80;;;9.60;96.30;;;;;;5014107;28;20454;-78
2022/10/02 18:54:32;;;;;;;9.03;2.40;;;9.50;96.30;;;;;;5016866;28;20856;-77
2022/10/02 18:57:06;;;;;;;13.13;2.33;;;9.40;96.30;;;;;;5002851;28;20421;-78
2022/10/02 18:59:52;;;;;;;5.57;2.40;;;9.30;96.30;;;;;;4996370;28;20410;-78
2022/10/02 19:02:49;;;;;;;8.13;2.30;;;9.30;96.30;;;;;;4996172;28;20471;-78
2022/10/02 19:05:25;;;;;;;6.27;2.20;;;9.20;96.30;;;;;;4978983;28;20464;-79
2022/10/02 19:08:02;;;;;;;4.40;2.33;;;9.10;96.30;;;;;;5013950;28;20411;-78
2022/10/02 19:10:30;;;;;;;4.73;2.80;;;9.00;96.30;;;;;;4997596;28;20499;-78
2022/10/02 19:13:13;;;;;;;6.53;3.13;;;8.90;96.30;;;;;;4997658;28;20973;-77
2022/10/02 19:15:43;;;;;;;4.40;2.80;;;9.00;96.30;;;;;;4997759;28;20909;-78
2022/10/02 19:18:20;;;;;;;8.50;3.40;;;9.10;96.30;;;;;;5014153;28;20388;-77
2022/10/02 19:34:01;;;;;;;15.27;3.93;;;9.30;96.30;;;;;;5776105;23;20522;-78
2022/10/02 19:36:30;;;;;;;7.33;3.53;;;9.30;96.30;;;;;;5036818;28;20395;-77
2022/10/02 19:39:06;;;;;;;9.90;3.70;;;9.30;96.30;;;;;;5036225;28;20399;-78
2022/10/02 19:41:38;;;;;;;5.00;2.73;;;9.30;96.30;;;;;;5017983;28;20442;-76